This is the latest recevied weather packets stored in our database for station/object W0WC. If no packets are shown the sender has not sent any weather packets the latest 10 day(s).
| Time | Temp. | Humidity | Pressure | Rain* | Wind** | Luminosity | Snow |
|---|---|---|---|---|---|---|---|
| 1778106913 | 16.67° C | 42% | 1016.8 hPa | 0 mm | - | 348 W/m² | - |
| 1778106609 | 16.67° C | 43% | 1016.7 hPa | 0 mm | - | 369 W/m² | - |
| 1778106306 | 16.67° C | 42% | 1016.5 hPa | 0 mm | - | 407 W/m² | - |
| 1778106003 | 16.67° C | 42% | 1016.5 hPa | 0 mm | - | 252 W/m² | - |
| 1778105700 | 16.67° C | 42% | 1016.6 hPa | 0 mm | - | 236 W/m² | - |
| 1778105398 | 16.67° C | 40% | 1016.6 hPa | 0 mm | - | 142 W/m² | - |
| 1778105093 | 16.67° C | 39% | 1016.8 hPa | 0 mm | - | 442 W/m² | - |
| 1778104790 | 16.11° C | 41% | 1016.9 hPa | 0 mm | - | 492 W/m² | - |
| 1778104486 | 16.11° C | 42% | 1016.6 hPa | 0 mm | - | 196 W/m² | - |
| 1778104187 | 16.11° C | 43% | 1016.6 hPa | 0 mm | - | 257 W/m² | - |
| 1778103884 | 16.11° C | 42% | 1016.8 hPa | 0 mm | - | 257 W/m² | - |
| 1778103582 | 16.11° C | 43% | 1016.8 hPa | 0 mm | - | 270 W/m² | - |
| 1778103279 | 16.11° C | 43% | 1016.7 hPa | 0 mm | - | 320 W/m² | - |
| 1778102976 | 16.67° C | 42% | 1016.8 hPa | 0 mm | - | 223 W/m² | - |
| 1778102672 | 16.67° C | 43% | 1016.7 hPa | 0 mm | - | 596 W/m² | - |
| 1778102367 | 16.67° C | 42% | 1016.8 hPa | 0 mm | - | 449 W/m² | - |
| 1778102064 | 16.67° C | 42% | 1016.9 hPa | 0 mm | - | 206 W/m² | - |
| 1778101761 | 16.11° C | 44% | 1016.8 hPa | 0 mm | - | 624 W/m² | - |
| 1778101457 | 16.67° C | 42% | 1016.9 hPa | 0 mm | - | 173 W/m² | - |
| 1778101155 | 16.67° C | 43% | 1017 hPa | 0 mm | - | 226 W/m² | - |
| 1778100850 | 16.67° C | 46% | 1016.9 hPa | 0 mm | - | 742 W/m² | - |
| 1778100547 | 16.67° C | 46% | 1017 hPa | 0 mm | - | 656 W/m² | - |
| 1778100245 | 16.67° C | 44% | 1017 hPa | 0 mm | - | 644 W/m² | - |
| 1778099942 | 16.67° C | 43% | 1017.2 hPa | 0 mm | - | 680 W/m² | - |
| 1778099639 | 16.11° C | 44% | 1017.1 hPa | 0 mm | - | 674 W/m² | - |
* Rain latest hour (hover to see other rain measurements)
** Current wind speed in m/s (hover to see current wind gust speed)